createdAt,value
2018-04-19T00:00:55.980Z,83.63
2018-04-19T00:01:56.043Z,84.11
2018-04-19T00:03:49.056Z,84.20
2018-04-19T00:04:49.099Z,84.01
2018-04-19T00:06:42.102Z,84.49
2018-04-19T00:07:42.160Z,84.39
2018-04-19T00:09:35.172Z,83.92
2018-04-19T00:10:35.216Z,84.06
2018-04-19T00:12:28.212Z,83.87
2018-04-19T00:13:28.280Z,84.55
2018-04-19T00:15:21.300Z,84.64
2018-04-19T00:16:21.331Z,84.06
2018-04-19T00:18:14.343Z,84.64
2018-04-19T00:19:14.391Z,83.97
2018-04-19T00:21:07.380Z,84.26
2018-04-19T00:22:07.443Z,83.87
2018-04-19T00:24:00.462Z,84.26
2018-04-19T00:25:00.505Z,84.55
2018-04-19T00:26:53.498Z,84.16
2018-04-19T00:27:53.561Z,84.64
2018-04-19T00:29:46.575Z,84.64
2018-04-19T00:30:46.617Z,84.45
2018-04-19T00:32:39.644Z,84.64
2018-04-19T00:33:39.688Z,84.22
2018-04-19T00:35:32.701Z,84.22
2018-04-19T00:36:32.744Z,84.31
2018-04-19T00:38:25.758Z,84.22
2018-04-19T00:39:25.800Z,84.02
2018-04-19T00:41:19.310Z,84.50
2018-04-19T00:42:19.370Z,84.69
2018-04-19T00:44:12.380Z,84.22
2018-04-19T00:45:12.423Z,84.22
2018-04-19T00:47:05.416Z,84.12
2018-04-19T00:48:05.480Z,84.12
2018-04-19T00:49:58.490Z,84.50
2018-04-19T00:50:58.534Z,84.41
2018-04-19T00:52:51.533Z,84.41
2018-04-19T00:53:51.587Z,84.12
2018-04-19T00:55:44.608Z,84.31
2018-04-19T00:56:44.650Z,84.27
2018-04-19T00:58:37.672Z,84.27
2018-04-19T00:59:37.707Z,84.36
2018-04-19T01:01:30.698Z,84.36
2018-04-19T01:02:30.758Z,84.08
2018-04-19T01:04:23.776Z,84.27
2018-04-19T01:05:23.818Z,84.46
2018-04-19T01:07:16.810Z,84.36
2018-04-19T01:08:16.874Z,84.46
2018-04-19T01:10:09.885Z,84.36
2018-04-19T01:11:09.925Z,84.27
2018-04-19T01:13:02.917Z,84.08
2018-04-19T01:14:02.980Z,84.17
2018-04-19T01:15:55.994Z,83.98
2018-04-19T01:16:56.036Z,84.27
2018-04-19T01:18:49.071Z,83.89
2018-04-19T01:19:49.114Z,84.17
2018-04-19T01:21:42.108Z,83.98
2018-04-19T01:22:42.169Z,84.17
2018-04-19T01:24:35.175Z,84.55
2018-04-19T01:25:35.229Z,84.23
2018-04-19T01:27:28.212Z,84.42
2018-04-19T01:28:28.276Z,84.23
2018-04-19T01:30:21.293Z,84.36
2018-04-19T01:31:21.336Z,84.32
2018-04-19T01:33:14.327Z,84.42
2018-04-19T01:34:14.385Z,84.23
2018-04-19T01:36:07.398Z,84.13
2018-04-19T01:37:07.444Z,84.13
2018-04-19T01:39:00.451Z,84.13
2018-04-19T01:40:00.496Z,84.32
2018-04-19T01:41:53.485Z,84.03
2018-04-19T01:42:53.545Z,83.84
2018-04-19T01:44:46.556Z,84.23
2018-04-19T01:45:46.622Z,84.23
2018-04-19T01:47:39.590Z,84.32
2018-04-19T01:48:39.651Z,83.75
2018-04-19T01:50:32.658Z,84.42
2018-04-19T01:51:32.702Z,83.94
2018-04-19T01:53:25.694Z,84.52
2018-04-19T01:54:25.753Z,84.03
2018-04-19T01:56:18.761Z,84.80
2018-04-19T01:57:18.803Z,83.99
2018-04-19T01:59:11.816Z,84.09
2018-04-19T02:00:11.856Z,84.38
2018-04-19T02:02:04.852Z,84.09
2018-04-19T02:03:04.911Z,83.70
2018-04-19T02:04:57.919Z,83.61
2018-04-19T02:05:57.961Z,83.99
2018-04-19T02:07:51.459Z,83.90
2018-04-19T02:08:51.520Z,83.99
2018-04-19T02:10:44.529Z,83.42
2018-04-19T02:11:44.571Z,83.51
2018-04-19T02:13:37.579Z,83.90
2018-04-19T02:14:37.621Z,84.09
2018-04-19T02:16:30.611Z,84.09
2018-04-19T02:17:30.673Z,83.80
2018-04-19T02:19:23.680Z,84.28
2018-04-19T02:20:23.721Z,83.42
2018-04-19T02:22:16.713Z,84.09
2018-04-19T02:23:16.773Z,84.28
2018-04-19T02:25:09.783Z,83.99
2018-04-19T02:26:09.825Z,83.80
2018-04-19T02:28:02.819Z,83.99
2018-04-19T02:29:02.880Z,84.09
2018-04-19T02:30:55.890Z,84.14
2018-04-19T02:31:55.933Z,84.09
2018-04-19T02:33:48.941Z,83.99
2018-04-19T02:34:48.982Z,83.99
2018-04-19T02:36:41.974Z,83.99
2018-04-19T02:37:42.038Z,84.09
2018-04-19T02:39:35.049Z,83.90
2018-04-19T02:40:35.089Z,84.28
2018-04-19T02:42:28.085Z,84.14
2018-04-19T02:43:28.143Z,83.67
2018-04-19T02:45:21.152Z,84.23
2018-04-19T02:46:21.198Z,83.76
2018-04-19T02:48:14.191Z,83.67
2018-04-19T02:49:14.252Z,84.23
2018-04-19T02:51:07.256Z,84.05
2018-04-19T02:52:07.300Z,84.05
2018-04-19T02:54:00.848Z,83.95
2018-04-19T02:55:00.348Z,84.05
2018-04-19T02:56:53.356Z,84.05
2018-04-19T02:57:53.407Z,83.95
2018-04-19T02:59:46.406Z,84.14
2018-04-19T03:00:46.447Z,84.05
2018-04-19T03:02:39.438Z,84.33
2018-04-19T03:03:39.498Z,84.23
2018-04-19T03:05:32.513Z,84.14
2018-04-19T03:06:32.552Z,84.33
2018-04-19T03:08:26.050Z,84.33
2018-04-19T03:09:26.109Z,84.43
2018-04-19T03:11:19.119Z,84.33
2018-04-19T03:12:19.156Z,84.14
2018-04-19T03:14:12.149Z,83.62
2018-04-19T03:15:12.205Z,83.91
2018-04-19T03:17:05.216Z,84.10
2018-04-19T03:18:05.262Z,84.58
2018-04-19T03:19:58.772Z,84.58
2018-04-19T03:20:58.812Z,84.58
2018-04-19T03:22:51.804Z,84.39
2018-04-19T03:23:51.861Z,84.10
2018-04-19T03:25:44.869Z,84.20
2018-04-19T03:26:44.909Z,84.58
2018-04-19T03:28:37.902Z,83.72
2018-04-19T03:29:37.967Z,84.00
2018-04-19T03:31:30.974Z,84.20
2018-04-19T03:32:31.015Z,84.58
2018-04-19T03:34:24.025Z,84.58
2018-04-19T03:35:24.078Z,84.39
2018-04-19T03:37:17.078Z,84.77
2018-04-19T03:38:17.112Z,83.81
2018-04-19T03:40:10.122Z,84.58
2018-04-19T03:41:10.162Z,84.10
2018-04-19T03:43:03.153Z,84.20
2018-04-19T03:44:03.211Z,84.29
2018-04-19T03:45:56.219Z,84.29
2018-04-19T03:46:56.259Z,84.77
2018-04-19T03:48:49.250Z,83.72
2018-04-19T03:49:49.308Z,84.39
2018-04-19T03:51:42.322Z,84.67
2018-04-19T03:52:42.365Z,84.29
2018-04-19T03:54:35.353Z,84.29
2018-04-19T03:55:35.413Z,84.58
2018-04-19T03:57:28.931Z,83.62
2018-04-19T03:58:28.970Z,84.39
2018-04-19T04:00:21.980Z,84.00
2018-04-19T04:01:22.020Z,84.20
2018-04-19T04:03:15.009Z,83.87
2018-04-19T04:04:15.074Z,84.10
2018-04-19T04:06:08.588Z,83.62
2018-04-19T04:07:08.627Z,84.29
2018-04-19T04:09:01.620Z,84.06
2018-04-19T04:10:01.686Z,83.67
2018-04-19T04:11:54.685Z,84.48
2018-04-19T04:12:54.726Z,84.86
2018-04-19T04:14:47.734Z,84.58
2018-04-19T04:15:47.773Z,84.58
2018-04-19T04:17:40.782Z,84.77
2018-04-19T04:18:40.821Z,84.29
2018-04-19T04:20:33.828Z,84.39
2018-04-19T04:21:33.869Z,84.58
2018-04-19T04:23:26.862Z,84.44
2018-04-19T04:24:26.921Z,83.91
2018-04-19T04:26:19.929Z,84.53
2018-04-19T04:27:19.971Z,84.58
2018-04-19T04:29:12.965Z,84.53
2018-04-19T04:30:13.028Z,84.53
2018-04-19T04:32:06.044Z,84.44
2018-04-19T04:33:06.085Z,84.53
2018-04-19T04:34:59.078Z,84.53
2018-04-19T04:35:59.135Z,84.72
2018-04-19T04:37:52.147Z,85.30
2018-04-19T04:38:52.184Z,84.96
2018-04-19T04:40:45.196Z,85.49
2018-04-19T04:41:45.235Z,84.77
2018-04-19T04:43:38.223Z,84.53
2018-04-19T04:44:38.282Z,84.44
2018-04-19T04:46:31.292Z,84.53
2018-04-19T04:47:31.327Z,85.39
2018-04-19T04:49:24.338Z,84.67
2018-04-19T04:50:24.376Z,84.53
2018-04-19T04:52:17.382Z,84.39
2018-04-19T04:53:17.423Z,85.01
2018-04-19T04:55:10.409Z,84.77
2018-04-19T04:56:10.470Z,84.86
2018-04-19T04:58:03.488Z,84.63
2018-04-19T04:59:03.526Z,85.01
2018-04-19T05:00:56.536Z,85.44
2018-04-19T05:01:56.570Z,84.39
2018-04-19T05:03:49.560Z,85.05
2018-04-19T05:04:49.646Z,84.86
2018-04-19T05:06:43.133Z,84.53
2018-04-19T05:07:43.174Z,84.48
2018-04-19T05:09:36.162Z,85.44
2018-04-19T05:10:36.226Z,85.44
2018-04-19T05:12:29.242Z,85.15
2018-04-19T05:13:29.275Z,84.86
2018-04-19T05:15:22.266Z,84.67
2018-04-19T05:16:22.321Z,85.34
2018-04-19T05:18:15.331Z,84.96
2018-04-19T05:19:15.369Z,85.05
2018-04-19T05:21:08.383Z,85.15
2018-04-19T05:22:08.421Z,84.77
2018-04-19T05:24:01.420Z,85.53
2018-04-19T05:25:01.508Z,84.20
2018-04-19T05:26:54.488Z,84.67
2018-04-19T05:27:54.532Z,84.86
2018-04-19T05:29:47.520Z,84.77
2018-04-19T05:30:47.577Z,84.39
2018-04-19T05:32:40.584Z,84.29
2018-04-19T05:33:40.625Z,84.86
2018-04-19T05:35:33.642Z,84.91
2018-04-19T05:36:33.674Z,84.96
2018-04-19T05:38:26.663Z,85.00
2018-04-19T05:39:26.721Z,85.10
2018-04-19T05:41:19.731Z,85.38
2018-04-19T05:42:19.771Z,85.19
2018-04-19T05:44:12.763Z,85.00
2018-04-19T05:45:12.828Z,85.48
2018-04-19T05:47:05.841Z,85.71
2018-04-19T05:48:05.883Z,85.81
2018-04-19T05:49:58.876Z,85.71
2018-04-19T05:50:58.933Z,85.52
2018-04-19T05:52:51.943Z,85.75
2018-04-19T05:53:51.983Z,84.89
2018-04-19T05:55:44.973Z,84.03
2018-04-19T05:56:45.035Z,85.28
2018-04-19T05:58:38.041Z,84.17
2018-04-19T05:59:38.082Z,84.27
2018-04-19T06:01:31.093Z,84.94
2018-04-19T06:02:31.135Z,84.08
2018-04-19T06:04:24.126Z,85.08
2018-04-19T06:05:24.185Z,84.02
2018-04-19T06:07:17.197Z,83.59
2018-04-19T06:08:17.238Z,84.64
2018-04-19T06:10:10.228Z,84.68
2018-04-19T06:11:10.293Z,83.63
2018-04-19T06:13:03.300Z,83.00
2018-04-19T06:14:03.341Z,83.09
2018-04-19T06:15:56.331Z,83.04
2018-04-19T06:16:56.393Z,82.89
2018-04-19T06:18:49.401Z,82.45
2018-04-19T06:19:49.443Z,81.82
2018-04-19T06:21:42.452Z,75.02
2018-04-19T06:22:42.494Z,72.26
2018-04-19T06:24:35.487Z,66.65
2018-04-19T06:25:35.547Z,63.73
2018-04-19T06:27:28.567Z,57.48
2018-04-19T06:28:28.609Z,54.73
2018-04-19T06:30:21.660Z,52.97
2018-04-19T06:31:21.670Z,51.93
2018-04-19T06:33:15.193Z,48.76
2018-04-19T06:34:15.239Z,47.20
2018-04-19T06:36:08.316Z,47.79
2018-04-19T06:37:08.306Z,47.02
2018-04-19T06:39:01.300Z,46.60
2018-04-19T06:40:01.373Z,45.55
2018-04-19T06:41:54.389Z,45.17
2018-04-19T06:42:54.437Z,44.70
2018-04-19T06:44:47.445Z,43.26
2018-04-19T06:45:47.515Z,42.97
2018-04-19T06:47:40.542Z,43.36
2018-04-19T06:48:40.588Z,43.29
2018-04-19T06:50:33.599Z,41.73
2018-04-19T06:51:33.674Z,41.01
2018-04-19T06:53:26.695Z,43.02
2018-04-19T06:54:26.746Z,43.59
2018-04-19T06:56:19.753Z,45.12
2018-04-19T06:57:19.824Z,45.12
2018-04-19T06:59:12.852Z,45.10
2018-04-19T07:00:12.908Z,45.10
2018-04-19T07:02:05.935Z,45.85
2018-04-19T07:03:05.990Z,45.10
2018-04-19T07:04:59.000Z,45.00
2018-04-19T07:05:59.069Z,45.26
2018-04-19T07:07:52.100Z,42.18
2018-04-19T07:08:52.155Z,42.39
2018-04-19T07:10:45.172Z,40.16
2018-04-19T07:11:45.245Z,38.77
2018-04-19T07:13:38.285Z,38.32
2018-04-19T07:14:38.371Z,38.71
2018-04-19T07:16:31.346Z,37.37
2018-04-19T07:17:31.419Z,37.19
2018-04-19T07:19:24.453Z,36.62
2018-04-19T07:20:24.505Z,35.38
2018-04-19T07:22:17.558Z,35.28
2018-04-19T07:23:17.593Z,34.41
2018-04-19T07:25:10.604Z,33.77
2018-04-19T07:26:10.683Z,32.97
2018-04-19T07:28:03.713Z,33.26
2018-04-19T07:29:03.767Z,33.64
2018-04-19T07:30:56.779Z,32.60
2018-04-19T07:31:56.855Z,33.29
2018-04-19T07:33:50.400Z,32.90
2018-04-19T07:34:50.454Z,33.04
2018-04-19T07:36:43.473Z,30.43
2018-04-19T07:37:43.546Z,30.07
2018-04-19T07:39:36.587Z,29.20
2018-04-19T07:40:36.640Z,28.86
2018-04-19T07:42:29.678Z,30.42
2018-04-19T07:43:29.735Z,30.12
2018-04-19T07:45:22.775Z,30.22
2018-04-19T07:46:22.826Z,28.78
2018-04-19T07:48:15.866Z,30.17
2018-04-19T07:49:15.922Z,29.21
2018-04-19T07:51:08.945Z,28.37
2018-04-19T07:52:09.022Z,25.85
2018-04-19T07:54:02.072Z,27.92
2018-04-19T07:55:02.124Z,27.74
2018-04-19T07:56:55.146Z,26.95
2018-04-19T07:57:55.242Z,26.78
2018-04-19T07:59:48.269Z,25.82
2018-04-19T08:00:48.329Z,24.71
2018-04-19T08:02:41.352Z,25.55
2018-04-19T08:03:41.428Z,23.55
2018-04-19T08:05:34.475Z,24.67
2018-04-19T08:06:34.531Z,25.24
2018-04-19T08:08:27.579Z,24.85
2018-04-19T08:09:27.631Z,25.98
2018-04-19T08:11:20.711Z,26.79
2018-04-19T08:12:20.743Z,28.39
2018-04-19T08:14:13.757Z,27.95
2018-04-19T08:15:13.840Z,28.63
2018-04-19T08:17:06.882Z,30.36
2018-04-19T08:18:06.942Z,30.46
2018-04-19T08:19:59.983Z,31.13
2018-04-19T08:21:00.043Z,31.29
2018-04-19T08:22:53.081Z,29.27
2018-04-19T08:23:53.150Z,29.69
2018-04-19T08:25:46.197Z,30.22
2018-04-19T08:26:46.255Z,29.21
2018-04-19T08:28:39.283Z,30.39
2018-04-19T08:29:39.361Z,29.41
2018-04-19T08:31:32.407Z,28.25
2018-04-19T08:32:32.464Z,27.14
2018-04-19T08:34:25.513Z,26.83
2018-04-19T08:35:25.579Z,28.57
2018-04-19T08:37:18.627Z,28.94
2018-04-19T08:38:18.677Z,28.65
2018-04-19T08:40:11.729Z,29.71
2018-04-19T08:41:11.791Z,28.54
2018-04-19T08:43:04.813Z,28.26
2018-04-19T08:44:04.891Z,28.51
2018-04-19T08:45:57.936Z,26.20
2018-04-19T08:46:57.999Z,26.34
2018-04-19T08:48:51.020Z,27.44
2018-04-19T08:49:51.106Z,26.82
2018-04-19T08:51:44.144Z,26.73
2018-04-19T08:52:44.206Z,26.65
2018-04-19T08:54:37.229Z,26.92
2018-04-19T08:55:37.308Z,25.68
2018-04-19T08:57:30.353Z,25.82
2018-04-19T08:58:30.413Z,26.34
2018-04-19T09:00:23.435Z,25.46
2018-04-19T09:01:23.516Z,25.56
2018-04-19T09:03:16.561Z,26.78
2018-04-19T09:04:16.621Z,28.41
2018-04-19T09:06:09.673Z,28.63
2018-04-19T09:07:09.731Z,30.39
2018-04-19T09:09:02.759Z,27.39
2018-04-19T09:10:02.839Z,28.44
2018-04-19T09:11:55.892Z,30.22
2018-04-19T09:12:55.951Z,30.52
2018-04-19T09:14:48.971Z,28.22
2018-04-19T09:15:49.053Z,30.32
2018-04-19T09:17:42.101Z,34.95
2018-04-19T09:18:42.160Z,34.14
2018-04-19T09:20:35.180Z,35.66
2018-04-19T09:21:35.258Z,37.12
2018-04-19T09:23:28.299Z,37.12
2018-04-19T09:24:28.355Z,35.86
2018-04-19T09:26:21.393Z,35.55
2018-04-19T09:27:21.445Z,36.81
2018-04-19T09:29:14.463Z,36.50
2018-04-19T09:30:14.535Z,38.64
2018-04-19T09:32:07.572Z,36.50
2018-04-19T09:33:07.637Z,36.02
2018-04-19T09:35:00.637Z,36.50
2018-04-19T09:36:00.712Z,35.72
2018-04-19T09:37:53.748Z,36.68
2018-04-19T09:38:53.794Z,36.79
2018-04-19T09:40:46.806Z,35.92
2018-04-19T09:41:46.872Z,36.30
2018-04-19T09:43:39.906Z,35.84
2018-04-19T09:44:39.952Z,35.84
2018-04-19T09:46:33.032Z,34.98
2018-04-19T09:47:33.032Z,34.97
2018-04-19T09:49:26.044Z,35.55
2018-04-19T09:50:26.111Z,35.94
2018-04-19T09:52:19.138Z,35.06
2018-04-19T09:53:19.187Z,35.06
2018-04-19T09:55:12.199Z,36.13
2018-04-19T09:56:12.265Z,35.84
2018-04-19T09:58:05.293Z,36.71
2018-04-19T09:59:05.343Z,35.94
2018-04-19T10:00:58.351Z,36.05
2018-04-19T10:01:58.423Z,36.05
2018-04-19T10:03:51.449Z,35.06
2018-04-19T10:04:51.505Z,36.02
2018-04-19T10:06:44.525Z,35.33
2018-04-19T10:07:44.577Z,34.46
2018-04-19T10:09:37.587Z,35.82
2018-04-19T10:10:37.657Z,36.52
2018-04-19T10:12:30.690Z,35.94
2018-04-19T10:13:30.733Z,35.63
2018-04-19T10:15:23.741Z,36.04
2018-04-19T10:16:23.814Z,38.95
2018-04-19T10:18:16.837Z,35.55
2018-04-19T10:19:16.887Z,35.74
2018-04-19T10:21:09.893Z,36.71
2018-04-19T10:22:09.967Z,36.54
2018-04-19T10:24:02.991Z,34.50
2018-04-19T10:25:03.042Z,34.38
2018-04-19T10:26:56.066Z,35.06
2018-04-19T10:27:56.116Z,35.86
2018-04-19T10:29:49.124Z,35.47
2018-04-19T10:30:49.194Z,34.88
2018-04-19T10:32:42.219Z,35.37
2018-04-19T10:33:42.270Z,33.61
2018-04-19T10:35:35.273Z,34.69
2018-04-19T10:36:35.342Z,35.57
2018-04-19T10:38:28.376Z,31.19
2018-04-19T10:39:28.422Z,32.65
2018-04-19T10:41:21.431Z,31.08
2018-04-19T10:42:21.495Z,31.66
2018-04-19T10:44:14.524Z,32.54
2018-04-19T10:45:14.576Z,32.73
2018-04-19T10:47:07.631Z,33.31
2018-04-19T10:48:07.649Z,33.41
2018-04-19T10:50:00.658Z,36.54
2018-04-19T10:51:00.728Z,33.43
2018-04-19T10:52:53.751Z,33.33
2018-04-19T10:53:53.802Z,33.93
2018-04-19T10:55:46.805Z,32.45
2018-04-19T10:56:46.879Z,32.94
2018-04-19T10:58:39.902Z,33.14
2018-04-19T10:59:39.951Z,31.00
2018-04-19T11:01:32.955Z,33.81
2018-04-19T11:02:33.025Z,32.55
2018-04-19T11:04:26.051Z,33.91
2018-04-19T11:05:26.099Z,33.15
2018-04-19T11:07:19.128Z,33.15
2018-04-19T11:08:19.185Z,32.57
2018-04-19T11:10:12.213Z,32.37
2018-04-19T11:11:12.259Z,31.98
2018-04-19T11:13:05.285Z,31.68
2018-04-19T11:14:05.334Z,33.14
2018-04-19T11:15:58.399Z,33.23
2018-04-19T11:16:58.413Z,34.32
2018-04-19T11:18:51.438Z,31.50
2018-04-19T11:19:51.488Z,29.55
2018-04-19T11:21:44.494Z,30.14
2018-04-19T11:22:44.563Z,33.54
2018-04-19T11:24:37.593Z,33.54
2018-04-19T11:25:37.639Z,31.11
2018-04-19T11:27:30.668Z,31.30
2018-04-19T11:28:30.715Z,31.11
2018-04-19T11:30:23.721Z,32.18
2018-04-19T11:31:23.789Z,33.15
2018-04-19T11:33:17.326Z,34.03
2018-04-19T11:34:17.370Z,31.13
2018-04-19T11:36:10.375Z,32.28
2018-04-19T11:37:10.446Z,32.68
2018-04-19T11:39:03.469Z,32.00
2018-04-19T11:40:03.521Z,29.76
2018-04-19T11:41:56.525Z,28.40
2018-04-19T11:42:56.595Z,30.15
2018-04-19T11:44:49.622Z,28.50
2018-04-19T11:45:49.673Z,28.40
2018-04-19T11:47:42.701Z,29.57
2018-04-19T11:48:42.755Z,34.35
2018-04-19T11:50:35.757Z,31.24
2018-04-19T11:51:35.831Z,32.70
2018-04-19T11:53:28.860Z,30.15
2018-04-19T11:54:28.903Z,32.00
2018-04-19T11:56:21.906Z,29.76
2018-04-19T11:57:21.976Z,28.51
2018-04-19T11:59:15.000Z,30.26
2018-04-19T12:00:15.050Z,28.90
2018-04-19T12:02:08.056Z,31.04
2018-04-19T12:03:08.134Z,27.05
2018-04-19T12:05:01.158Z,27.33
2018-04-19T12:06:01.210Z,28.79
2018-04-19T12:07:54.234Z,28.59
2018-04-19T12:08:54.284Z,29.97
2018-04-19T12:10:47.288Z,30.07
2018-04-19T12:11:47.358Z,31.53
2018-04-19T12:13:40.391Z,32.11
2018-04-19T12:14:40.440Z,31.43
2018-04-19T12:16:33.446Z,31.63
2018-04-19T12:17:33.515Z,31.24
2018-04-19T12:19:26.545Z,29.10
2018-04-19T12:20:26.596Z,29.58
2018-04-19T12:22:19.598Z,28.32
2018-04-19T12:23:19.669Z,28.70
2018-04-19T12:25:12.696Z,29.10
2018-04-19T12:26:12.747Z,29.00
2018-04-19T12:28:05.768Z,29.78
2018-04-19T12:29:05.816Z,30.07
2018-04-19T12:30:58.826Z,29.49
2018-04-19T12:31:58.897Z,30.85
2018-04-19T12:33:52.431Z,30.05
2018-04-19T12:34:52.481Z,30.05
2018-04-19T12:36:45.500Z,30.05
2018-04-19T12:37:45.569Z,33.56
2018-04-19T12:39:38.596Z,32.11
2018-04-19T12:40:38.647Z,31.43
2018-04-19T12:42:31.659Z,30.28
2018-04-19T12:43:31.782Z,32.42
2018-04-19T12:45:24.760Z,29.79
2018-04-19T12:46:24.804Z,30.38
2018-04-19T12:48:17.835Z,29.99
2018-04-19T12:49:17.887Z,31.43
2018-04-19T12:51:10.890Z,29.39
2018-04-19T12:52:10.961Z,30.07
2018-04-19T12:54:03.985Z,31.54
2018-04-19T12:55:04.035Z,32.32
2018-04-19T12:56:57.058Z,32.52
2018-04-19T12:57:57.122Z,32.42
2018-04-19T12:59:50.150Z,33.69
2018-04-19T13:00:50.201Z,32.21
2018-04-19T13:02:43.207Z,31.43
2018-04-19T13:03:43.277Z,33.28
2018-04-19T13:05:36.302Z,32.40
2018-04-19T13:06:36.385Z,32.50
2018-04-19T13:08:29.415Z,32.81
2018-04-19T13:09:29.469Z,31.24
2018-04-19T13:11:22.467Z,31.92
2018-04-19T13:12:22.538Z,31.53
2018-04-19T13:14:15.563Z,30.26
2018-04-19T13:15:15.611Z,30.65
2018-04-19T13:17:08.616Z,30.08
2018-04-19T13:18:08.692Z,30.87
2018-04-19T13:20:01.713Z,31.25
2018-04-19T13:21:01.761Z,30.38
2018-04-19T13:22:54.773Z,33.39
2018-04-19T13:23:54.845Z,33.01
2018-04-19T13:25:47.936Z,31.45
2018-04-19T13:26:47.915Z,30.08
2018-04-19T13:28:40.948Z,30.28
2018-04-19T13:29:40.996Z,31.54
2018-04-19T13:31:34.001Z,32.03
2018-04-19T13:32:34.070Z,32.62
2018-04-19T13:34:27.099Z,33.69
2018-04-19T13:35:27.147Z,30.96
2018-04-19T13:37:20.162Z,31.27
2018-04-19T13:38:20.227Z,32.32
2018-04-19T13:40:13.256Z,31.74
2018-04-19T13:41:13.306Z,31.16
2018-04-19T13:43:06.316Z,32.71
2018-04-19T13:44:06.385Z,31.35
2018-04-19T13:45:59.412Z,30.87
2018-04-19T13:46:59.458Z,30.55
2018-04-19T13:48:52.485Z,32.02
2018-04-19T13:49:52.531Z,32.32
2018-04-19T13:51:45.536Z,31.16
2018-04-19T13:52:45.607Z,29.42
2018-04-19T13:54:38.635Z,30.19
2018-04-19T13:55:38.689Z,29.50
2018-04-19T13:57:31.699Z,28.63
2018-04-19T13:58:31.762Z,28.82
2018-04-19T14:00:24.786Z,29.99
2018-04-19T14:01:24.835Z,28.92
2018-04-19T14:03:17.861Z,30.47
2018-04-19T14:04:17.910Z,32.23
2018-04-19T14:06:10.940Z,29.69
2018-04-19T14:07:10.992Z,29.50
2018-04-19T14:09:04.035Z,30.18
2018-04-19T14:10:04.076Z,28.72
2018-04-19T14:11:57.082Z,29.79
2018-04-19T14:12:57.152Z,30.77
2018-04-19T14:14:50.176Z,32.91
2018-04-19T14:15:50.227Z,32.92
2018-04-19T14:17:43.233Z,35.34
2018-04-19T14:18:43.304Z,33.39
2018-04-19T14:20:36.329Z,31.74
2018-04-19T14:21:36.382Z,33.49
2018-04-19T14:23:29.389Z,32.52
2018-04-19T14:24:29.465Z,31.74
2018-04-19T14:26:22.492Z,31.45
2018-04-19T14:27:22.534Z,31.56
2018-04-19T14:29:15.559Z,32.73
2018-04-19T14:30:15.608Z,29.99
2018-04-19T14:32:08.613Z,29.22
2018-04-19T14:33:08.684Z,30.38
2018-04-19T14:35:01.710Z,31.56
2018-04-19T14:36:01.757Z,31.66
2018-04-19T14:37:54.768Z,30.29
2018-04-19T14:38:54.865Z,30.19
2018-04-19T14:40:47.866Z,30.28
2018-04-19T14:41:48.211Z,30.18
2018-04-19T14:43:40.953Z,30.38
2018-04-19T14:44:40.996Z,30.87
2018-04-19T14:46:34.017Z,29.60
2018-04-19T14:47:34.065Z,30.08
2018-04-19T14:49:27.091Z,31.74
2018-04-19T14:50:27.143Z,30.08
2018-04-19T14:52:20.144Z,30.08
2018-04-19T14:53:20.214Z,30.08
2018-04-19T14:55:13.240Z,31.25
2018-04-19T14:56:13.297Z,30.08
2018-04-19T14:58:06.295Z,29.69
2018-04-19T14:59:06.365Z,29.50
2018-04-19T15:00:59.396Z,30.18
2018-04-19T15:01:59.476Z,29.79
2018-04-19T15:03:52.448Z,30.08
2018-04-19T15:04:52.518Z,30.08
2018-04-19T15:06:45.543Z,29.79
2018-04-19T15:07:45.593Z,29.60
2018-04-19T15:09:38.626Z,30.28
2018-04-19T15:10:38.671Z,29.02
2018-04-19T15:12:31.678Z,30.96
2018-04-19T15:13:31.751Z,29.78
2018-04-19T15:15:24.781Z,29.97
2018-04-19T15:16:24.827Z,29.97
2018-04-19T15:18:17.835Z,31.43
2018-04-19T15:19:17.907Z,29.88
2018-04-19T15:21:10.952Z,29.10
2018-04-19T15:22:10.998Z,30.17
2018-04-19T15:24:04.007Z,31.34
2018-04-19T15:25:04.075Z,30.85
2018-04-19T15:26:57.097Z,31.14
2018-04-19T15:27:57.147Z,31.14
2018-04-19T15:29:50.178Z,31.63
2018-04-19T15:30:50.224Z,29.78
2018-04-19T15:32:43.255Z,31.04
2018-04-19T15:33:43.320Z,29.58
2018-04-19T15:35:36.339Z,30.46
2018-04-19T15:36:36.420Z,30.26
2018-04-19T15:38:29.401Z,31.14
2018-04-19T15:39:29.477Z,29.78
2018-04-19T15:41:22.494Z,30.75
2018-04-19T15:42:22.546Z,30.44
2018-04-19T15:44:15.556Z,32.87
2018-04-19T15:45:15.626Z,31.13
2018-04-19T15:47:08.686Z,29.96
2018-04-19T15:48:08.702Z,30.15
2018-04-19T15:50:01.812Z,30.93
2018-04-19T15:51:01.823Z,29.86
2018-04-19T15:52:54.816Z,28.50
2018-04-19T15:53:54.898Z,29.76
2018-04-19T15:55:47.917Z,29.46
2018-04-19T15:56:47.960Z,30.44
2018-04-19T15:58:40.970Z,28.68
2018-04-19T15:59:41.043Z,30.05
2018-04-19T16:01:34.062Z,29.26
2018-04-19T16:02:34.148Z,29.46
2018-04-19T16:04:27.125Z,29.26
2018-04-19T16:05:27.212Z,29.55
2018-04-19T16:07:21.761Z,29.94
2018-04-19T16:08:21.796Z,30.14
2018-04-19T16:10:14.840Z,31.40
2018-04-19T16:11:14.913Z,30.43
2018-04-19T16:13:07.875Z,30.62
2018-04-19T16:14:07.945Z,31.11
2018-04-19T16:16:00.973Z,31.58
2018-04-19T16:17:01.031Z,32.17
2018-04-19T16:18:54.048Z,31.97
2018-04-19T16:19:54.109Z,31.19
2018-04-19T16:21:47.148Z,31.48
2018-04-19T16:22:47.199Z,31.97
2018-04-19T16:24:40.718Z,31.48
2018-04-19T16:25:40.787Z,31.97
2018-04-19T16:27:33.814Z,32.55
2018-04-19T16:28:33.863Z,32.75
2018-04-19T16:30:26.958Z,30.41
2018-04-19T16:31:26.934Z,31.19
2018-04-19T16:33:20.505Z,31.29
2018-04-19T16:34:21.442Z,31.10
2018-04-19T16:36:13.617Z,31.38
2018-04-19T16:37:13.589Z,31.10
2018-04-19T16:39:06.594Z,31.66
2018-04-19T16:40:06.773Z,32.05
2018-04-19T16:41:59.779Z,31.18
2018-04-19T16:42:59.747Z,31.18
2018-04-19T16:44:53.275Z,31.18
2018-04-19T16:45:53.316Z,30.98
2018-04-19T16:47:46.417Z,31.85
2018-04-19T16:48:46.464Z,32.05
2018-04-19T16:50:39.419Z,31.47
2018-04-19T16:51:39.469Z,31.37
2018-04-19T16:53:32.567Z,31.27
2018-04-19T16:54:32.541Z,31.08
2018-04-19T16:56:25.571Z,31.47
2018-04-19T16:57:25.620Z,32.24
2018-04-19T16:59:18.623Z,33.22
2018-04-19T17:00:18.692Z,32.62
2018-04-19T17:02:11.724Z,33.20
2018-04-19T17:03:11.766Z,32.62
2018-04-19T17:05:04.765Z,32.71
2018-04-19T17:06:04.839Z,32.52
2018-04-19T17:07:57.863Z,33.01
2018-04-19T17:08:57.921Z,33.29
2018-04-19T17:10:50.934Z,33.20
2018-04-19T17:11:50.983Z,33.78
2018-04-19T17:13:43.987Z,33.39
2018-04-19T17:14:44.091Z,33.20
2018-04-19T17:16:37.082Z,34.17
2018-04-19T17:17:37.132Z,33.78
2018-04-19T17:19:30.141Z,34.08
2018-04-19T17:20:30.221Z,34.27
2018-04-19T17:22:24.756Z,35.53
2018-04-19T17:23:24.800Z,35.61
2018-04-19T17:25:17.802Z,35.51
2018-04-19T17:26:17.874Z,35.61
2018-04-19T17:28:10.894Z,36.19
2018-04-19T17:29:10.943Z,36.68
2018-04-19T17:31:03.971Z,35.61
2018-04-19T17:32:04.020Z,35.90
2018-04-19T17:33:57.029Z,35.90
2018-04-19T17:34:57.102Z,36.10
2018-04-19T17:36:50.121Z,36.29
2018-04-19T17:37:50.172Z,36.19
2018-04-19T17:39:43.177Z,36.10
2018-04-19T17:40:43.245Z,36.66
2018-04-19T17:42:36.265Z,35.78
2018-04-19T17:43:36.318Z,36.56
2018-04-19T17:45:29.318Z,37.24
2018-04-19T17:46:29.385Z,36.76
2018-04-19T17:48:22.417Z,36.08
2018-04-19T17:49:22.464Z,36.46
2018-04-19T17:51:15.487Z,36.08
2018-04-19T17:52:15.834Z,36.08
2018-04-19T17:54:08.544Z,37.43
2018-04-19T17:55:08.612Z,36.35
2018-04-19T17:57:01.640Z,36.36
2018-04-19T17:58:01.684Z,36.54
2018-04-19T17:59:54.682Z,36.64
2018-04-19T18:00:54.777Z,37.03
2018-04-19T18:02:47.776Z,36.54
2018-04-19T18:03:47.825Z,36.35
2018-04-19T18:05:40.826Z,37.13
2018-04-19T18:06:40.927Z,37.01
2018-04-19T18:08:33.919Z,37.30
2018-04-19T18:09:33.967Z,37.59
2018-04-19T18:11:26.994Z,37.69
2018-04-19T18:12:27.043Z,37.98
2018-04-19T18:14:20.055Z,38.07
2018-04-19T18:15:20.112Z,38.15
2018-04-19T18:17:13.653Z,38.64
2018-04-19T18:18:13.692Z,38.45
2018-04-19T18:20:06.697Z,38.54
2018-04-19T18:21:06.762Z,38.06
2018-04-19T18:22:59.820Z,38.73
2018-04-19T18:23:59.834Z,38.54
2018-04-19T18:25:52.837Z,39.32
2018-04-19T18:26:52.906Z,39.22
2018-04-19T18:28:45.934Z,39.20
2018-04-19T18:29:45.978Z,39.59
2018-04-19T18:31:38.998Z,39.78
2018-04-19T18:32:39.342Z,39.88
2018-04-19T18:34:32.049Z,40.17